sensor_id;sensor_type;location;lat;lon;timestamp;temperature;humidity
13806;DHT22;6974;53.606;9.872;2022-09-14T00:01:32;16.00;99.90
13806;DHT22;6974;53.606;9.872;2022-09-14T00:04:04;16.00;99.90
13806;DHT22;6974;53.606;9.872;2022-09-14T00:06:32;15.90;99.90
13806;DHT22;6974;53.606;9.872;2022-09-14T00:08:59;15.90;99.90
13806;DHT22;6974;53.606;9.872;2022-09-14T00:11:28;15.80;99.90
13806;DHT22;6974;53.606;9.872;2022-09-14T00:13:56;15.80;99.90
13806;DHT22;6974;53.606;9.872;2022-09-14T00:16:25;15.80;99.90
13806;DHT22;6974;53.606;9.872;2022-09-14T00:18:54;15.80;99.90
13806;DHT22;6974;53.606;9.872;2022-09-14T00:21:23;15.80;99.90
13806;DHT22;6974;53.606;9.872;2022-09-14T00:23:50;15.80;99.90
13806;DHT22;6974;53.606;9.872;2022-09-14T00:26:18;15.80;99.90
13806;DHT22;6974;53.606;9.872;2022-09-14T00:28:47;15.80;99.90
13806;DHT22;6974;53.606;9.872;2022-09-14T00:31:16;15.70;99.90
13806;DHT22;6974;53.606;9.872;2022-09-14T00:33:44;15.70;99.90
13806;DHT22;6974;53.606;9.872;2022-09-14T00:36:14;15.70;99.90
13806;DHT22;6974;53.606;9.872;2022-09-14T00:38:44;15.60;99.90
13806;DHT22;6974;53.606;9.872;2022-09-14T00:41:13;15.60;99.90
13806;DHT22;6974;53.606;9.872;2022-09-14T00:43:52;15.60;99.90
13806;DHT22;6974;53.606;9.872;2022-09-14T00:46:19;15.60;99.90
13806;DHT22;6974;53.606;9.872;2022-09-14T00:48:46;15.60;99.90
13806;DHT22;6974;53.606;9.872;2022-09-14T00:51:14;15.60;99.90
13806;DHT22;6974;53.606;9.872;2022-09-14T00:53:43;15.50;99.90
13806;DHT22;6974;53.606;9.872;2022-09-14T00:56:10;15.50;99.90
13806;DHT22;6974;53.606;9.872;2022-09-14T00:58:37;15.50;99.90
13806;DHT22;6974;53.606;9.872;2022-09-14T01:01:04;15.50;99.90
13806;DHT22;6974;53.606;9.872;2022-09-14T01:03:34;15.50;99.90
13806;DHT22;6974;53.606;9.872;2022-09-14T01:06:17;15.50;99.90
13806;DHT22;6974;53.606;9.872;2022-09-14T01:09:04;15.50;99.90
13806;DHT22;6974;53.606;9.872;2022-09-14T01:11:45;15.50;99.90
13806;DHT22;6974;53.606;9.872;2022-09-14T01:14:18;15.40;99.90
13806;DHT22;6974;53.606;9.872;2022-09-14T01:16:48;15.30;99.90
13806;DHT22;6974;53.606;9.872;2022-09-14T01:19:24;15.30;99.90
13806;DHT22;6974;53.606;9.872;2022-09-14T01:21:54;15.30;99.90
13806;DHT22;6974;53.606;9.872;2022-09-14T01:24:26;15.30;99.90
13806;DHT22;6974;53.606;9.872;2022-09-14T01:27:22;15.30;99.90
13806;DHT22;6974;53.606;9.872;2022-09-14T01:29:56;15.30;99.90
13806;DHT22;6974;53.606;9.872;2022-09-14T01:32:27;15.20;99.90
13806;DHT22;6974;53.606;9.872;2022-09-14T01:35:01;15.20;99.90
13806;DHT22;6974;53.606;9.872;2022-09-14T01:37:34;15.20;99.90
13806;DHT22;6974;53.606;9.872;2022-09-14T01:40:06;15.20;99.90
13806;DHT22;6974;53.606;9.872;2022-09-14T01:42:37;15.20;99.90
13806;DHT22;6974;53.606;9.872;2022-09-14T01:45:08;15.10;99.90
13806;DHT22;6974;53.606;9.872;2022-09-14T01:47:39;15.10;99.90
13806;DHT22;6974;53.606;9.872;2022-09-14T01:50:11;15.10;99.90
13806;DHT22;6974;53.606;9.872;2022-09-14T01:52:43;15.10;99.90
13806;DHT22;6974;53.606;9.872;2022-09-14T01:55:15;15.10;99.90
13806;DHT22;6974;53.606;9.872;2022-09-14T01:57:46;15.00;99.90
13806;DHT22;6974;53.606;9.872;2022-09-14T02:00:18;15.00;99.90
13806;DHT22;6974;53.606;9.872;2022-09-14T02:02:49;15.00;99.90
13806;DHT22;6974;53.606;9.872;2022-09-14T02:05:21;15.00;99.90
13806;DHT22;6974;53.606;9.872;2022-09-14T02:07:50;15.00;99.90
13806;DHT22;6974;53.606;9.872;2022-09-14T02:10:17;15.00;99.90
13806;DHT22;6974;53.606;9.872;2022-09-14T02:12:45;15.00;99.90
13806;DHT22;6974;53.606;9.872;2022-09-14T02:15:13;15.00;99.90
13806;DHT22;6974;53.606;9.872;2022-09-14T02:17:41;14.90;99.90
13806;DHT22;6974;53.606;9.872;2022-09-14T02:20:13;14.90;99.90
13806;DHT22;6974;53.606;9.872;2022-09-14T02:22:42;14.90;99.90
13806;DHT22;6974;53.606;9.872;2022-09-14T02:25:09;14.80;99.90
13806;DHT22;6974;53.606;9.872;2022-09-14T02:27:36;14.80;99.90
13806;DHT22;6974;53.606;9.872;2022-09-14T02:30:06;14.80;99.90
13806;DHT22;6974;53.606;9.872;2022-09-14T02:32:37;14.80;99.90
13806;DHT22;6974;53.606;9.872;2022-09-14T02:35:10;14.70;99.90
13806;DHT22;6974;53.606;9.872;2022-09-14T02:37:49;14.70;99.90
13806;DHT22;6974;53.606;9.872;2022-09-14T02:40:24;14.70;99.90
13806;DHT22;6974;53.606;9.872;2022-09-14T02:43:01;14.60;99.90
13806;DHT22;6974;53.606;9.872;2022-09-14T02:45:38;14.60;99.90
13806;DHT22;6974;53.606;9.872;2022-09-14T02:48:12;14.60;99.90
13806;DHT22;6974;53.606;9.872;2022-09-14T02:50:46;14.60;99.90
13806;DHT22;6974;53.606;9.872;2022-09-14T02:53:18;14.60;99.90
13806;DHT22;6974;53.606;9.872;2022-09-14T02:55:49;14.60;99.90
13806;DHT22;6974;53.606;9.872;2022-09-14T02:58:17;14.60;99.90
13806;DHT22;6974;53.606;9.872;2022-09-14T03:00:46;14.50;99.90
13806;DHT22;6974;53.606;9.872;2022-09-14T03:03:16;14.50;99.90
13806;DHT22;6974;53.606;9.872;2022-09-14T03:05:43;14.50;99.90
13806;DHT22;6974;53.606;9.872;2022-09-14T03:08:10;14.50;99.90
13806;DHT22;6974;53.606;9.872;2022-09-14T03:10:41;14.50;99.90
13806;DHT22;6974;53.606;9.872;2022-09-14T03:13:08;14.60;99.90
13806;DHT22;6974;53.606;9.872;2022-09-14T03:15:35;14.60;99.90
13806;DHT22;6974;53.606;9.872;2022-09-14T03:18:04;14.60;99.90
13806;DHT22;6974;53.606;9.872;2022-09-14T03:20:33;14.60;99.90
13806;DHT22;6974;53.606;9.872;2022-09-14T03:23:01;14.60;99.90
13806;DHT22;6974;53.606;9.872;2022-09-14T03:25:28;14.60;99.90
13806;DHT22;6974;53.606;9.872;2022-09-14T03:27:57;14.60;99.90
13806;DHT22;6974;53.606;9.872;2022-09-14T03:30:25;14.60;99.90
13806;DHT22;6974;53.606;9.872;2022-09-14T03:32:52;14.60;99.90
13806;DHT22;6974;53.606;9.872;2022-09-14T03:35:20;14.50;99.90
13806;DHT22;6974;53.606;9.872;2022-09-14T03:37:47;14.50;99.90
13806;DHT22;6974;53.606;9.872;2022-09-14T03:40:15;14.60;99.90
13806;DHT22;6974;53.606;9.872;2022-09-14T03:42:43;14.50;99.90
13806;DHT22;6974;53.606;9.872;2022-09-14T03:45:11;14.50;99.90
13806;DHT22;6974;53.606;9.872;2022-09-14T03:47:38;14.50;99.90
13806;DHT22;6974;53.606;9.872;2022-09-14T03:50:06;14.50;99.90
13806;DHT22;6974;53.606;9.872;2022-09-14T03:52:34;14.50;99.90
13806;DHT22;6974;53.606;9.872;2022-09-14T03:55:02;14.40;99.90
13806;DHT22;6974;53.606;9.872;2022-09-14T03:57:29;14.40;99.90
13806;DHT22;6974;53.606;9.872;2022-09-14T03:59:55;14.40;99.90
13806;DHT22;6974;53.606;9.872;2022-09-14T04:02:22;14.30;99.90
13806;DHT22;6974;53.606;9.872;2022-09-14T04:04:49;14.30;99.90
13806;DHT22;6974;53.606;9.872;2022-09-14T04:07:16;14.30;99.90
13806;DHT22;6974;53.606;9.872;2022-09-14T04:09:44;14.30;99.90
13806;DHT22;6974;53.606;9.872;2022-09-14T04:12:11;14.30;99.90
13806;DHT22;6974;53.606;9.872;2022-09-14T04:14:38;14.40;99.90
13806;DHT22;6974;53.606;9.872;2022-09-14T04:17:05;14.40;99.90
13806;DHT22;6974;53.606;9.872;2022-09-14T04:19:31;14.40;99.90
13806;DHT22;6974;53.606;9.872;2022-09-14T04:22:02;14.50;99.90
13806;DHT22;6974;53.606;9.872;2022-09-14T04:24:28;14.50;99.90
13806;DHT22;6974;53.606;9.872;2022-09-14T04:26:57;14.50;99.90
13806;DHT22;6974;53.606;9.872;2022-09-14T04:29:23;14.50;99.90
13806;DHT22;6974;53.606;9.872;2022-09-14T04:31:50;14.50;99.90
13806;DHT22;6974;53.606;9.872;2022-09-14T04:34:17;14.60;99.90
13806;DHT22;6974;53.606;9.872;2022-09-14T04:36:44;14.60;99.90
13806;DHT22;6974;53.606;9.872;2022-09-14T04:39:11;14.70;99.90
13806;DHT22;6974;53.606;9.872;2022-09-14T04:41:39;14.70;99.90
13806;DHT22;6974;53.606;9.872;2022-09-14T04:44:07;14.70;99.90
13806;DHT22;6974;53.606;9.872;2022-09-14T04:46:35;14.80;99.90
13806;DHT22;6974;53.606;9.872;2022-09-14T04:49:04;14.80;99.90
13806;DHT22;6974;53.606;9.872;2022-09-14T04:51:31;14.80;99.90
13806;DHT22;6974;53.606;9.872;2022-09-14T04:54:00;14.80;99.90
13806;DHT22;6974;53.606;9.872;2022-09-14T04:56:29;14.80;99.90
13806;DHT22;6974;53.606;9.872;2022-09-14T04:58:57;14.80;99.90
13806;DHT22;6974;53.606;9.872;2022-09-14T05:01:29;14.80;99.90
13806;DHT22;6974;53.606;9.872;2022-09-14T05:03:56;14.90;99.90
13806;DHT22;6974;53.606;9.872;2022-09-14T05:06:25;14.90;99.90
13806;DHT22;6974;53.606;9.872;2022-09-14T05:08:52;15.00;99.90
13806;DHT22;6974;53.606;9.872;2022-09-14T05:11:21;15.00;99.90
13806;DHT22;6974;53.606;9.872;2022-09-14T05:13:48;15.00;99.90
13806;DHT22;6974;53.606;9.872;2022-09-14T05:16:17;15.00;99.90
13806;DHT22;6974;53.606;9.872;2022-09-14T05:18:46;15.00;99.90
13806;DHT22;6974;53.606;9.872;2022-09-14T05:21:15;15.00;99.90
13806;DHT22;6974;53.606;9.872;2022-09-14T05:23:42;15.00;99.90
13806;DHT22;6974;53.606;9.872;2022-09-14T05:26:09;15.00;99.90
13806;DHT22;6974;53.606;9.872;2022-09-14T05:28:37;15.10;99.90
13806;DHT22;6974;53.606;9.872;2022-09-14T05:31:04;15.10;99.90
13806;DHT22;6974;53.606;9.872;2022-09-14T05:33:32;15.10;99.90
13806;DHT22;6974;53.606;9.872;2022-09-14T05:36:02;15.10;99.90
13806;DHT22;6974;53.606;9.872;2022-09-14T05:38:29;15.10;99.90
13806;DHT22;6974;53.606;9.872;2022-09-14T05:40:56;15.20;99.90
13806;DHT22;6974;53.606;9.872;2022-09-14T05:43:24;15.10;99.90
13806;DHT22;6974;53.606;9.872;2022-09-14T05:45:51;15.10;99.90
13806;DHT22;6974;53.606;9.872;2022-09-14T05:48:17;15.20;99.90
13806;DHT22;6974;53.606;9.872;2022-09-14T05:50:45;15.20;99.90
13806;DHT22;6974;53.606;9.872;2022-09-14T05:53:13;15.20;99.90
13806;DHT22;6974;53.606;9.872;2022-09-14T05:55:40;15.20;99.90
13806;DHT22;6974;53.606;9.872;2022-09-14T05:58:07;15.20;99.90
13806;DHT22;6974;53.606;9.872;2022-09-14T06:00:35;15.20;99.90
13806;DHT22;6974;53.606;9.872;2022-09-14T06:03:03;15.30;99.90
13806;DHT22;6974;53.606;9.872;2022-09-14T06:05:31;15.30;99.90
13806;DHT22;6974;53.606;9.872;2022-09-14T06:08:00;15.30;99.90
13806;DHT22;6974;53.606;9.872;2022-09-14T06:10:28;15.40;99.90
13806;DHT22;6974;53.606;9.872;2022-09-14T06:12:55;15.40;99.90
13806;DHT22;6974;53.606;9.872;2022-09-14T06:15:21;15.40;99.90
13806;DHT22;6974;53.606;9.872;2022-09-14T06:17:49;15.50;99.90
13806;DHT22;6974;53.606;9.872;2022-09-14T06:20:15;15.50;99.90
13806;DHT22;6974;53.606;9.872;2022-09-14T06:22:43;15.50;99.90
13806;DHT22;6974;53.606;9.872;2022-09-14T06:25:10;15.60;99.90
13806;DHT22;6974;53.606;9.872;2022-09-14T06:27:38;15.60;99.90
13806;DHT22;6974;53.606;9.872;2022-09-14T06:30:06;15.60;99.90
13806;DHT22;6974;53.606;9.872;2022-09-14T06:32:33;15.70;99.90
13806;DHT22;6974;53.606;9.872;2022-09-14T06:35:00;15.70;99.90
13806;DHT22;6974;53.606;9.872;2022-09-14T06:37:28;15.70;99.90
13806;DHT22;6974;53.606;9.872;2022-09-14T06:39:54;15.80;99.90
13806;DHT22;6974;53.606;9.872;2022-09-14T06:42:21;15.80;99.90
13806;DHT22;6974;53.606;9.872;2022-09-14T06:44:49;15.90;99.90
13806;DHT22;6974;53.606;9.872;2022-09-14T06:47:16;15.90;99.90
13806;DHT22;6974;53.606;9.872;2022-09-14T06:49:43;15.90;99.90
13806;DHT22;6974;53.606;9.872;2022-09-14T06:52:09;15.90;99.90
13806;DHT22;6974;53.606;9.872;2022-09-14T06:54:36;16.00;99.90
13806;DHT22;6974;53.606;9.872;2022-09-14T06:57:05;16.00;99.90
13806;DHT22;6974;53.606;9.872;2022-09-14T06:59:31;15.90;99.90
13806;DHT22;6974;53.606;9.872;2022-09-14T07:01:59;16.00;99.90
13806;DHT22;6974;53.606;9.872;2022-09-14T07:04:26;16.00;99.90
13806;DHT22;6974;53.606;9.872;2022-09-14T07:06:54;16.10;99.90
13806;DHT22;6974;53.606;9.872;2022-09-14T07:09:21;16.10;99.90
13806;DHT22;6974;53.606;9.872;2022-09-14T07:11:48;16.10;99.90
13806;DHT22;6974;53.606;9.872;2022-09-14T07:14:14;16.10;99.90
13806;DHT22;6974;53.606;9.872;2022-09-14T07:16:41;16.10;99.90
13806;DHT22;6974;53.606;9.872;2022-09-14T07:19:11;16.20;99.90
13806;DHT22;6974;53.606;9.872;2022-09-14T07:21:38;16.20;99.90
13806;DHT22;6974;53.606;9.872;2022-09-14T07:24:05;16.20;99.90
13806;DHT22;6974;53.606;9.872;2022-09-14T07:26:33;16.30;99.90
13806;DHT22;6974;53.606;9.872;2022-09-14T07:29:05;16.40;99.90
13806;DHT22;6974;53.606;9.872;2022-09-14T07:31:34;16.40;99.90
13806;DHT22;6974;53.606;9.872;2022-09-14T07:34:02;16.40;99.90
13806;DHT22;6974;53.606;9.872;2022-09-14T07:36:34;16.40;99.90
13806;DHT22;6974;53.606;9.872;2022-09-14T07:39:02;16.40;99.90
13806;DHT22;6974;53.606;9.872;2022-09-14T07:41:29;16.50;99.90
13806;DHT22;6974;53.606;9.872;2022-09-14T07:43:57;16.50;99.90
13806;DHT22;6974;53.606;9.872;2022-09-14T07:46:25;16.60;99.90
13806;DHT22;6974;53.606;9.872;2022-09-14T07:48:54;16.60;99.90
13806;DHT22;6974;53.606;9.872;2022-09-14T07:51:21;16.70;99.90
13806;DHT22;6974;53.606;9.872;2022-09-14T07:53:50;16.80;99.90
13806;DHT22;6974;53.606;9.872;2022-09-14T07:56:17;16.80;99.90
13806;DHT22;6974;53.606;9.872;2022-09-14T07:58:44;16.80;99.90
13806;DHT22;6974;53.606;9.872;2022-09-14T08:01:12;16.80;99.90
13806;DHT22;6974;53.606;9.872;2022-09-14T08:03:41;16.90;99.90
13806;DHT22;6974;53.606;9.872;2022-09-14T08:06:09;16.90;99.90
13806;DHT22;6974;53.606;9.872;2022-09-14T08:08:38;16.90;99.90
13806;DHT22;6974;53.606;9.872;2022-09-14T08:11:09;17.00;99.90
13806;DHT22;6974;53.606;9.872;2022-09-14T08:13:37;17.10;99.90
13806;DHT22;6974;53.606;9.872;2022-09-14T08:16:05;17.20;99.90
13806;DHT22;6974;53.606;9.872;2022-09-14T08:18:33;17.20;99.90
13806;DHT22;6974;53.606;9.872;2022-09-14T08:21:03;17.30;99.90
13806;DHT22;6974;53.606;9.872;2022-09-14T08:23:30;17.30;99.90
13806;DHT22;6974;53.606;9.872;2022-09-14T08:26:01;17.40;99.90
13806;DHT22;6974;53.606;9.872;2022-09-14T08:28:30;17.50;99.90
13806;DHT22;6974;53.606;9.872;2022-09-14T08:31:02;17.50;99.90
13806;DHT22;6974;53.606;9.872;2022-09-14T08:33:30;17.60;99.90
13806;DHT22;6974;53.606;9.872;2022-09-14T08:35:57;17.60;99.90
13806;DHT22;6974;53.606;9.872;2022-09-14T08:38:24;17.60;99.90
13806;DHT22;6974;53.606;9.872;2022-09-14T08:40:51;17.70;99.90
13806;DHT22;6974;53.606;9.872;2022-09-14T08:43:18;17.70;99.90
13806;DHT22;6974;53.606;9.872;2022-09-14T08:45:49;17.80;99.90
13806;DHT22;6974;53.606;9.872;2022-09-14T08:48:22;17.90;99.90
13806;DHT22;6974;53.606;9.872;2022-09-14T08:50:51;17.90;99.90
13806;DHT22;6974;53.606;9.872;2022-09-14T08:53:19;18.00;99.90
13806;DHT22;6974;53.606;9.872;2022-09-14T08:55:49;18.10;99.90
13806;DHT22;6974;53.606;9.872;2022-09-14T08:58:29;18.10;99.90
13806;DHT22;6974;53.606;9.872;2022-09-14T09:01:06;18.20;99.90
13806;DHT22;6974;53.606;9.872;2022-09-14T09:04:02;18.20;99.90
13806;DHT22;6974;53.606;9.872;2022-09-14T09:06:38;18.20;99.90
13806;DHT22;6974;53.606;9.872;2022-09-14T09:09:13;18.30;99.90
13806;DHT22;6974;53.606;9.872;2022-09-14T09:11:46;18.30;99.90
13806;DHT22;6974;53.606;9.872;2022-09-14T09:14:17;18.30;99.90
13806;DHT22;6974;53.606;9.872;2022-09-14T09:16:50;18.30;99.90
13806;DHT22;6974;53.606;9.872;2022-09-14T09:19:24;18.40;99.90
13806;DHT22;6974;53.606;9.872;2022-09-14T09:21:52;18.50;99.90
13806;DHT22;6974;53.606;9.872;2022-09-14T09:24:26;18.60;99.90
13806;DHT22;6974;53.606;9.872;2022-09-14T09:26:53;18.60;99.90
13806;DHT22;6974;53.606;9.872;2022-09-14T09:29:20;18.70;99.90
13806;DHT22;6974;53.606;9.872;2022-09-14T09:31:51;18.60;99.90
13806;DHT22;6974;53.606;9.872;2022-09-14T09:34:25;18.70;99.90
13806;DHT22;6974;53.606;9.872;2022-09-14T09:36:52;18.70;99.90
13806;DHT22;6974;53.606;9.872;2022-09-14T09:39:22;18.70;99.90
13806;DHT22;6974;53.606;9.872;2022-09-14T09:41:55;18.70;99.90
13806;DHT22;6974;53.606;9.872;2022-09-14T09:44:23;18.70;99.90
13806;DHT22;6974;53.606;9.872;2022-09-14T09:46:53;18.80;99.90
13806;DHT22;6974;53.606;9.872;2022-09-14T09:49:23;18.90;99.90
13806;DHT22;6974;53.606;9.872;2022-09-14T09:51:51;19.00;99.90
13806;DHT22;6974;53.606;9.872;2022-09-14T09:54:23;19.00;99.90
13806;DHT22;6974;53.606;9.872;2022-09-14T09:56:52;19.00;99.90
13806;DHT22;6974;53.606;9.872;2022-09-14T09:59:26;18.90;99.90
13806;DHT22;6974;53.606;9.872;2022-09-14T10:01:55;18.80;99.90
13806;DHT22;6974;53.606;9.872;2022-09-14T10:04:25;18.70;99.90
13806;DHT22;6974;53.606;9.872;2022-09-14T10:06:54;18.60;99.90
13806;DHT22;6974;53.606;9.872;2022-09-14T10:09:24;18.60;99.90
13806;DHT22;6974;53.606;9.872;2022-09-14T10:11:57;18.50;99.90
13806;DHT22;6974;53.606;9.872;2022-09-14T10:14:28;18.50;99.90
13806;DHT22;6974;53.606;9.872;2022-09-14T10:17:06;18.40;99.90
13806;DHT22;6974;53.606;9.872;2022-09-14T10:19:33;18.40;99.90
13806;DHT22;6974;53.606;9.872;2022-09-14T10:22:13;18.30;99.90
13806;DHT22;6974;53.606;9.872;2022-09-14T10:24:51;18.30;99.90
13806;DHT22;6974;53.606;9.872;2022-09-14T10:27:36;18.40;99.90
13806;DHT22;6974;53.606;9.872;2022-09-14T10:30:08;18.50;99.90
13806;DHT22;6974;53.606;9.872;2022-09-14T10:32:38;18.50;99.90
13806;DHT22;6974;53.606;9.872;2022-09-14T10:35:11;18.50;99.90
13806;DHT22;6974;53.606;9.872;2022-09-14T10:37:49;18.50;99.90
13806;DHT22;6974;53.606;9.872;2022-09-14T10:40:19;18.50;99.90
13806;DHT22;6974;53.606;9.872;2022-09-14T10:43:01;18.50;99.90
13806;DHT22;6974;53.606;9.872;2022-09-14T10:45:33;18.50;99.90
13806;DHT22;6974;53.606;9.872;2022-09-14T10:48:13;18.50;99.90
13806;DHT22;6974;53.606;9.872;2022-09-14T10:50:53;18.50;99.90
13806;DHT22;6974;53.606;9.872;2022-09-14T10:53:35;18.50;99.90
13806;DHT22;6974;53.606;9.872;2022-09-14T10:56:09;18.60;99.90
13806;DHT22;6974;53.606;9.872;2022-09-14T10:58:54;18.70;99.90
13806;DHT22;6974;53.606;9.872;2022-09-14T11:01:32;18.80;99.90
13806;DHT22;6974;53.606;9.872;2022-09-14T11:04:34;18.90;99.90
13806;DHT22;6974;53.606;9.872;2022-09-14T11:07:07;18.90;99.90
13806;DHT22;6974;53.606;9.872;2022-09-14T11:09:40;19.10;99.90
13806;DHT22;6974;53.606;9.872;2022-09-14T11:12:12;19.20;99.90
13806;DHT22;6974;53.606;9.872;2022-09-14T11:14:58;19.30;99.90
13806;DHT22;6974;53.606;9.872;2022-09-14T11:20:06;19.30;99.90
13806;DHT22;6974;53.606;9.872;2022-09-14T11:22:41;19.30;99.90
13806;DHT22;6974;53.606;9.872;2022-09-14T11:25:15;19.20;99.90
13806;DHT22;6974;53.606;9.872;2022-09-14T11:27:47;19.00;99.90
13806;DHT22;6974;53.606;9.872;2022-09-14T11:30:19;18.80;99.90
13806;DHT22;6974;53.606;9.872;2022-09-14T11:32:49;18.80;99.90
13806;DHT22;6974;53.606;9.872;2022-09-14T11:35:21;18.70;99.90
13806;DHT22;6974;53.606;9.872;2022-09-14T11:37:52;18.60;99.90
13806;DHT22;6974;53.606;9.872;2022-09-14T11:40:23;18.60;99.90
13806;DHT22;6974;53.606;9.872;2022-09-14T11:42:56;18.50;99.90
13806;DHT22;6974;53.606;9.872;2022-09-14T11:45:28;18.50;99.90
13806;DHT22;6974;53.606;9.872;2022-09-14T11:48:16;18.50;99.90
13806;DHT22;6974;53.606;9.872;2022-09-14T11:50:55;18.50;99.90
13806;DHT22;6974;53.606;9.872;2022-09-14T11:53:24;18.50;99.90
13806;DHT22;6974;53.606;9.872;2022-09-14T11:55:52;18.50;99.90
13806;DHT22;6974;53.606;9.872;2022-09-14T11:58:22;18.50;99.90
13806;DHT22;6974;53.606;9.872;2022-09-14T12:01:03;18.50;99.90
13806;DHT22;6974;53.606;9.872;2022-09-14T12:06:59;18.60;99.90
13806;DHT22;6974;53.606;9.872;2022-09-14T12:09:40;18.60;99.90
13806;DHT22;6974;53.606;9.872;2022-09-14T12:12:32;18.70;99.90
13806;DHT22;6974;53.606;9.872;2022-09-14T12:15:03;18.80;99.90
13806;DHT22;6974;53.606;9.872;2022-09-14T12:17:32;18.90;99.90
13806;DHT22;6974;53.606;9.872;2022-09-14T12:20:40;19.00;99.90
13806;DHT22;6974;53.606;9.872;2022-09-14T12:23:23;19.10;99.90
13806;DHT22;6974;53.606;9.872;2022-09-14T12:25:56;19.10;99.90
13806;DHT22;6974;53.606;9.872;2022-09-14T12:28:37;19.10;99.90
13806;DHT22;6974;53.606;9.872;2022-09-14T12:31:09;19.00;99.90
13806;DHT22;6974;53.606;9.872;2022-09-14T12:36:56;18.80;99.90
13806;DHT22;6974;53.606;9.872;2022-09-14T12:39:26;18.60;99.90
13806;DHT22;6974;53.606;9.872;2022-09-14T12:42:23;18.50;99.90
13806;DHT22;6974;53.606;9.872;2022-09-14T12:44:50;18.50;99.90
13806;DHT22;6974;53.606;9.872;2022-09-14T12:50:27;18.40;99.90
13806;DHT22;6974;53.606;9.872;2022-09-14T12:53:05;18.50;99.90
13806;DHT22;6974;53.606;9.872;2022-09-14T12:55:55;18.50;99.90
13806;DHT22;6974;53.606;9.872;2022-09-14T12:58:52;18.70;99.90
13806;DHT22;6974;53.606;9.872;2022-09-14T13:01:36;18.70;99.90
13806;DHT22;6974;53.606;9.872;2022-09-14T13:04:13;18.70;99.90
13806;DHT22;6974;53.606;9.872;2022-09-14T13:06:44;18.80;99.90
13806;DHT22;6974;53.606;9.872;2022-09-14T13:09:18;18.70;99.90
13806;DHT22;6974;53.606;9.872;2022-09-14T13:11:52;18.60;99.90
13806;DHT22;6974;53.606;9.872;2022-09-14T13:14:22;18.60;99.90
13806;DHT22;6974;53.606;9.872;2022-09-14T13:16:50;18.60;99.90
13806;DHT22;6974;53.606;9.872;2022-09-14T13:19:21;18.60;99.90
13806;DHT22;6974;53.606;9.872;2022-09-14T13:21:50;18.50;99.90
13806;DHT22;6974;53.606;9.872;2022-09-14T13:24:24;18.50;99.90
13806;DHT22;6974;53.606;9.872;2022-09-14T13:26:57;18.50;99.90
13806;DHT22;6974;53.606;9.872;2022-09-14T13:29:25;18.60;99.90
13806;DHT22;6974;53.606;9.872;2022-09-14T13:31:53;18.50;99.90
13806;DHT22;6974;53.606;9.872;2022-09-14T13:34:23;18.50;99.90
13806;DHT22;6974;53.606;9.872;2022-09-14T13:36:51;18.50;99.90
13806;DHT22;6974;53.606;9.872;2022-09-14T13:39:24;18.50;99.90
13806;DHT22;6974;53.606;9.872;2022-09-14T13:41:52;18.50;99.90
13806;DHT22;6974;53.606;9.872;2022-09-14T13:44:25;18.60;99.90
13806;DHT22;6974;53.606;9.872;2022-09-14T13:46:57;18.60;99.90
13806;DHT22;6974;53.606;9.872;2022-09-14T13:49:25;18.70;99.90
13806;DHT22;6974;53.606;9.872;2022-09-14T13:52:16;18.70;99.90
13806;DHT22;6974;53.606;9.872;2022-09-14T13:54:45;18.70;99.90
13806;DHT22;6974;53.606;9.872;2022-09-14T13:57:14;18.70;99.90
13806;DHT22;6974;53.606;9.872;2022-09-14T14:00:14;18.70;99.90
13806;DHT22;6974;53.606;9.872;2022-09-14T14:02:46;18.80;99.90
13806;DHT22;6974;53.606;9.872;2022-09-14T14:05:22;18.80;99.90
13806;DHT22;6974;53.606;9.872;2022-09-14T14:07:51;18.80;99.90
13806;DHT22;6974;53.606;9.872;2022-09-14T14:10:27;18.80;99.90
13806;DHT22;6974;53.606;9.872;2022-09-14T14:12:55;18.80;99.90
13806;DHT22;6974;53.606;9.872;2022-09-14T14:15:46;18.90;99.90
13806;DHT22;6974;53.606;9.872;2022-09-14T14:18:38;18.90;99.90
13806;DHT22;6974;53.606;9.872;2022-09-14T14:21:15;19.00;99.90
13806;DHT22;6974;53.606;9.872;2022-09-14T14:23:44;19.00;99.90
13806;DHT22;6974;53.606;9.872;2022-09-14T14:26:14;19.00;99.90
13806;DHT22;6974;53.606;9.872;2022-09-14T14:28:42;19.00;99.90
13806;DHT22;6974;53.606;9.872;2022-09-14T14:31:19;19.00;99.90
13806;DHT22;6974;53.606;9.872;2022-09-14T14:33:49;19.10;99.90
13806;DHT22;6974;53.606;9.872;2022-09-14T14:36:18;19.10;99.90
13806;DHT22;6974;53.606;9.872;2022-09-14T14:38:45;19.00;99.90
13806;DHT22;6974;53.606;9.872;2022-09-14T14:41:14;18.90;99.90
13806;DHT22;6974;53.606;9.872;2022-09-14T14:43:42;18.90;99.90
13806;DHT22;6974;53.606;9.872;2022-09-14T14:46:11;18.90;99.90
13806;DHT22;6974;53.606;9.872;2022-09-14T14:48:41;18.90;99.90
13806;DHT22;6974;53.606;9.872;2022-09-14T14:51:11;18.90;99.90
13806;DHT22;6974;53.606;9.872;2022-09-14T14:53:40;18.90;99.90
13806;DHT22;6974;53.606;9.872;2022-09-14T14:56:09;18.90;99.90
13806;DHT22;6974;53.606;9.872;2022-09-14T14:58:41;18.90;99.90
13806;DHT22;6974;53.606;9.872;2022-09-14T15:01:10;19.00;99.90
13806;DHT22;6974;53.606;9.872;2022-09-14T15:03:40;19.00;99.90
13806;DHT22;6974;53.606;9.872;2022-09-14T15:06:12;18.90;99.90
13806;DHT22;6974;53.606;9.872;2022-09-14T15:08:41;19.00;99.90
13806;DHT22;6974;53.606;9.872;2022-09-14T15:11:14;19.00;99.90
13806;DHT22;6974;53.606;9.872;2022-09-14T15:13:42;19.00;99.90
13806;DHT22;6974;53.606;9.872;2022-09-14T15:16:11;19.00;99.90
13806;DHT22;6974;53.606;9.872;2022-09-14T15:18:39;19.10;99.90
13806;DHT22;6974;53.606;9.872;2022-09-14T15:21:07;19.10;99.90
13806;DHT22;6974;53.606;9.872;2022-09-14T15:23:34;19.00;99.90
13806;DHT22;6974;53.606;9.872;2022-09-14T15:26:01;19.00;99.90
13806;DHT22;6974;53.606;9.872;2022-09-14T15:28:29;18.90;99.90
13806;DHT22;6974;53.606;9.872;2022-09-14T15:30:56;18.90;99.90
13806;DHT22;6974;53.606;9.872;2022-09-14T15:33:24;18.80;99.90
13806;DHT22;6974;53.606;9.872;2022-09-14T15:35:57;18.80;99.90
13806;DHT22;6974;53.606;9.872;2022-09-14T15:38:24;18.70;99.90
13806;DHT22;6974;53.606;9.872;2022-09-14T15:40:52;18.70;99.90
13806;DHT22;6974;53.606;9.872;2022-09-14T15:43:19;18.70;99.90
13806;DHT22;6974;53.606;9.872;2022-09-14T15:45:47;18.60;99.90
13806;DHT22;6974;53.606;9.872;2022-09-14T15:48:17;18.60;99.90
13806;DHT22;6974;53.606;9.872;2022-09-14T15:50:47;18.60;99.90
13806;DHT22;6974;53.606;9.872;2022-09-14T15:53:16;18.60;99.90
13806;DHT22;6974;53.606;9.872;2022-09-14T15:55:44;18.60;99.90
13806;DHT22;6974;53.606;9.872;2022-09-14T15:58:12;18.70;99.90
13806;DHT22;6974;53.606;9.872;2022-09-14T16:00:42;18.60;99.90
13806;DHT22;6974;53.606;9.872;2022-09-14T16:03:10;18.60;99.90
13806;DHT22;6974;53.606;9.872;2022-09-14T16:05:37;18.50;99.90
13806;DHT22;6974;53.606;9.872;2022-09-14T16:08:05;18.50;99.90
13806;DHT22;6974;53.606;9.872;2022-09-14T16:10:34;18.50;99.90
13806;DHT22;6974;53.606;9.872;2022-09-14T16:13:01;18.40;99.90
13806;DHT22;6974;53.606;9.872;2022-09-14T16:15:30;18.40;99.90
13806;DHT22;6974;53.606;9.872;2022-09-14T16:17:57;18.40;99.90
13806;DHT22;6974;53.606;9.872;2022-09-14T16:20:25;18.40;99.90